Skykomish, WA

7:57 PM PDT on October 21, 2014 (GMT -0700)
Grotto | Change Station
CLOSE
Current Station
Personal Weather Station
Location: Baring, WA
Elevation: 873 ft
Nearby Weather Stations
Active Advisory: Areal Flood Watch

Elev 873 ft 47.74 °N, 121.42 °W | Updated 12 minutes ago

Mostly Cloudy
Mostly Cloudy
51.4 °F
Feels Like 51.4 °F
N
0.0
Wind Variable Wind from North
Gusts 2.2 mph

Today
High -- | Low -- °F
--% Chance of Precip.
Yesterday
High -- | Low -- °F
Precip. -- in
7:33 AM 6:05 PM
Waning Crescent, 3% visible
Pressure 29.87 in
Visibility 8.0 miles
Clouds Overcast 6500 ft
Dew Point 51 °F
Humidity 99%
Rainfall 0.24 in
Snow Depth 0 in , 0 in , 0 in
UV 0 out of 12
Pollen .40 out of 12
PM2.5 Good
Flu Activity Sporadic
METAR KRNT 220153Z 14005KT 8SM OVC065 16/09 A2985 RMK AO2 SLP114 T01560089

More Conditions Fewer Conditions

Pressure 29.87 in
Visibility 8.0 miles
Clouds Overcast 6500 ft
Dew Point 51 °F
Humidity 99%
Rainfall 0.24 in
Snow Depth 0 in , 0 in , 0 in
UV 0 out of 12
Pollen .40 out of 12
PM2.5 Good
Flu Activity Sporadic
METAR KRNT 220153Z 14005KT 8SM OVC065 16/09 A2985 RMK AO2 SLP114 T01560089

More Conditions Fewer Conditions

10-Day Weather Forecast

Almanac

Astronomy

Oct. 21, 2014 Rise Set
Actual Time 7:33 AM PDT 6:05 PM PDT
Civil Twilight 7:01 AM PDT 6:37 PM PDT
Nautical Twilight 6:25 AM PDT 7:13 PM PDT
Astronomical Twilight 5:49 AM PDT 7:48 PM PDT
Moon 5:13 AM PDT (10/21) 5:09 PM PDT (10/21)
Length of Visible Light 11h 35m
Length of Day
10h 32m
Tomorrow will be 3m 16s shorter.
Waning Crescent, 3% of the Moon is Illuminated
Today
Waning Crescent
Oct 23
New
Oct 30
First Quarter
Nov 6
Full
Nov 14
Last Quarter

Today's Extremes

State Highs State Lows

Community

WunderPhotos

Upload Photos

1,763,862 photos uploaded!

Nearby

Air Quality

  Air Quality AQ Index Pollutant
Yesterday Good
OZONE
Yesterday Good
PM2.5
Current Good
PM2.5
Tuesday Good
PM2.5
Wednesday Good
PM2.5
Thursday Good
PM2.5
Friday Good
PM2.5
Saturday Good
PM2.5

Snow Depth

Station Depth Elevation
Stevens Pass 0 in 4070 ft
Skookum Creek 0 in 3920 ft
Alpine Meadows 0 in 3500 ft
Sasse Ridge 0 in 4200 ft
Mount Gardner 0 in 3000 ft

Earthquake Activity

City Distance Mag. Time & Date
No recent earthquake activity has been reported nearby.
Minimum magnitude displayed is 2.5.

Coastal Water Temperatures

Place Temperature
No Stations Reporting

Nearby Weather Stations